Time;durP1;ratioP1;P1;durP2;ratioP2;P2;SDS_P1;SDS_P2;PMS_P1;PMS_P2;Temp;Humidity;BMP_temperature;BMP_pressure;BME280_temperature;BME280_humidity;BME280_pressure;Samples;Min_cycle;Max_cycle;Signal;HPM_P1;HPM_P2
2022/09/03 00:00:17;;;;;;;3.60;1.15;;;;;25.00;101036.00;;;;5090502;28;20198;-79
2022/09/03 00:02:49;;;;;;;1.33;1.00;;;;;25.00;101039.00;;;;5089952;28;20210;-79
2022/09/03 00:05:22;;;;;;;1.48;1.00;;;;;25.00;101033.00;;;;5090605;28;20208;-79
2022/09/03 00:07:57;;;;;;;4.32;0.90;;;;;24.90;101025.00;;;;5089864;28;20717;-79
2022/09/03 00:10:29;;;;;;;2.50;1.10;;;;;24.90;101028.00;;;;5089648;28;20186;-79
2022/09/03 00:13:01;;;;;;;1.45;1.02;;;;;24.90;101029.00;;;;5090206;28;20195;-79
2022/09/03 00:15:31;;;;;;;0.93;0.75;;;;;24.90;101019.00;;;;5090296;28;20614;-79
2022/09/03 00:18:04;;;;;;;1.13;1.02;;;;;24.90;101026.00;;;;5089660;28;20209;-79
2022/09/03 00:20:35;;;;;;;2.67;1.05;;;;;24.90;101031.00;;;;5089808;28;20202;-79
2022/09/03 00:23:05;;;;;;;2.95;1.20;;;;;24.90;101025.00;;;;5089575;28;20230;-79
2022/09/03 00:25:39;;;;;;;3.58;0.95;;;;;24.80;101031.00;;;;5089870;28;20218;-79
2022/09/03 00:28:12;;;;;;;3.72;1.10;;;;;24.80;101022.00;;;;5089819;28;20213;-79
2022/09/03 00:30:41;;;;;;;1.40;0.90;;;;;24.80;101021.00;;;;5089060;28;20275;-79
2022/09/03 00:33:14;;;;;;;1.45;0.98;;;;;24.70;101027.00;;;;5089546;28;20198;-79
2022/09/03 00:35:46;;;;;;;1.25;0.80;;;;;24.70;101020.00;;;;5089431;28;20198;-79
2022/09/03 00:38:14;;;;;;;4.63;1.02;;;;;24.70;101020.00;;;;5089719;28;20222;-79
2022/09/03 00:40:57;;;;;;;0.90;0.82;;;;;24.60;101022.00;;;;5089148;28;20261;-79
2022/09/03 00:43:39;;;;;;;1.55;0.85;;;;;24.60;101018.00;;;;5089830;28;20198;-79
2022/09/03 00:46:18;;;;;;;2.38;0.90;;;;;24.60;101021.00;;;;5088912;28;20751;-79
2022/09/03 00:48:57;;;;;;;0.95;0.82;;;;;24.60;101021.00;;;;5088814;28;20225;-80
2022/09/03 00:51:33;;;;;;;1.40;1.02;;;;;24.60;101013.00;;;;5089710;28;20221;-78
2022/09/03 00:54:07;;;;;;;3.03;1.13;;;;;24.60;101012.00;;;;5089577;28;20198;-79
2022/09/03 00:56:42;;;;;;;2.20;0.93;;;;;24.50;101013.00;;;;5089373;28;20548;-79
2022/09/03 00:59:21;;;;;;;1.88;1.13;;;;;24.50;101016.00;;;;5089097;28;20209;-79
2022/09/03 01:01:57;;;;;;;1.77;0.98;;;;;24.50;101014.00;;;;5088186;28;20584;-79
2022/09/03 01:04:35;;;;;;;1.30;1.20;;;;;24.50;101016.00;;;;5088923;28;20217;-79
2022/09/03 01:07:09;;;;;;;2.15;1.02;;;;;24.50;101012.00;;;;5089354;28;20213;-79
2022/09/03 01:09:50;;;;;;;1.15;0.93;;;;;24.40;101013.00;;;;5088477;28;20221;-78
2022/09/03 01:12:31;;;;;;;1.58;0.98;;;;;24.40;101012.00;;;;5088915;28;20194;-79
2022/09/03 01:15:06;;;;;;;1.77;0.90;;;;;24.50;101020.00;;;;5088429;28;20203;-78
2022/09/03 01:17:46;;;;;;;1.30;1.10;;;;;24.40;101014.00;;;;5088368;28;20644;-79
2022/09/03 01:20:27;;;;;;;1.60;1.00;;;;;24.40;101015.00;;;;5089229;28;20205;-79
2022/09/03 01:23:27;;;;;;;1.70;0.98;;;;;24.40;101012.00;;;;5088859;28;20667;-79
2022/09/03 01:26:00;;;;;;;1.92;1.10;;;;;24.50;101011.00;;;;5053242;28;20240;-79
2022/09/03 01:28:42;;;;;;;1.30;0.77;;;;;24.40;101022.00;;;;5088792;28;20206;-80
2022/09/03 01:31:19;;;;;;;9.85;0.93;;;;;24.40;101014.00;;;;5087941;28;20725;-79
2022/09/03 01:33:55;;;;;;;3.35;1.55;;;;;24.40;101016.00;;;;5087881;28;20205;-79
2022/09/03 01:36:30;;;;;;;2.30;0.80;;;;;24.50;101018.00;;;;5088302;28;20219;-79
2022/09/03 01:39:02;;;;;;;1.52;0.98;;;;;24.50;101024.00;;;;5088087;28;20249;-80
2022/09/03 01:44:40;;;;;;;1.33;1.10;;;;;24.50;101020.00;;;;5088909;28;20225;-80
2022/09/03 01:47:15;;;;;;;3.65;1.08;;;;;24.50;101018.00;;;;5088489;28;20255;-80
2022/09/03 01:49:56;;;;;;;0.98;0.90;;;;;24.40;101018.00;;;;5087551;28;20237;-79
2022/09/03 01:52:35;;;;;;;1.25;0.90;;;;;24.50;101014.00;;;;5088886;28;20206;-80
2022/09/03 01:55:12;;;;;;;3.47;1.25;;;;;24.50;101014.00;;;;5088133;28;20209;-79
2022/09/03 01:57:46;;;;;;;1.90;0.73;;;;;24.50;101024.00;;;;5087947;28;20206;-79
2022/09/03 02:00:19;;;;;;;1.67;1.27;;;;;24.50;101021.00;;;;5087702;28;20305;-79
2022/09/03 02:02:49;;;;;;;1.48;1.00;;;;;24.50;101024.00;;;;5087920;28;20658;-80
2022/09/03 02:05:23;;;;;;;1.77;1.00;;;;;24.50;101020.00;;;;5088427;28;20238;-80
2022/09/03 02:07:55;;;;;;;1.05;0.80;;;;;24.50;101014.00;;;;5087467;28;20187;-80
2022/09/03 02:10:29;;;;;;;1.77;0.98;;;;;24.50;101017.00;;;;5087994;28;20245;-80
2022/09/03 02:13:00;;;;;;;1.10;0.90;;;;;24.40;101015.00;;;;5088230;28;20202;-80
2022/09/03 02:15:31;;;;;;;1.10;0.90;;;;;24.40;101013.00;;;;5087860;28;20194;-80
2022/09/03 02:18:03;;;;;;;1.80;1.25;;;;;24.40;101011.00;;;;5087565;28;20206;-79
2022/09/03 02:20:31;;;;;;;1.58;0.82;;;;;24.40;101017.00;;;;5086737;28;20206;-77
2022/09/03 02:22:59;;;;;;;1.23;1.00;;;;;24.40;101020.00;;;;5086832;28;20657;-77
2022/09/03 02:25:34;;;;;;;5.80;0.95;;;;;24.30;101018.00;;;;5087551;28;20612;-77
2022/09/03 02:28:04;;;;;;;1.38;0.95;;;;;24.40;101019.00;;;;5088177;28;20205;-78
2022/09/03 02:30:33;;;;;;;2.70;0.90;;;;;24.30;101022.00;;;;5086845;28;20626;-78
2022/09/03 02:33:01;;;;;;;1.40;1.02;;;;;24.30;101017.00;;;;5087714;28;20520;-77
2022/09/03 02:35:28;;;;;;;1.00;0.90;;;;;24.30;101020.00;;;;5087758;28;20194;-77
2022/09/03 02:37:56;;;;;;;1.73;0.93;;;;;24.30;101015.00;;;;5090514;28;20206;-79
2022/09/03 02:40:23;;;;;;;1.90;0.90;;;;;24.30;101009.00;;;;5091866;28;20518;-78
2022/09/03 02:42:51;;;;;;;1.20;1.10;;;;;24.20;101013.00;;;;5091733;28;20198;-78
2022/09/03 02:45:26;;;;;;;3.08;1.08;;;;;24.20;101009.00;;;;5092121;28;20205;-78
2022/09/03 02:47:58;;;;;;;3.63;1.00;;;;;24.20;101004.00;;;;5091150;28;20655;-78
2022/09/03 02:50:26;;;;;;;1.52;0.95;;;;;24.20;101008.00;;;;5091771;28;20217;-78
2022/09/03 02:52:53;;;;;;;1.88;1.08;;;;;24.20;101009.00;;;;5091158;28;20194;-78
2022/09/03 02:55:21;;;;;;;1.67;1.05;;;;;24.20;101007.00;;;;5091584;28;20217;-78
2022/09/03 02:57:48;;;;;;;1.27;1.05;;;;;24.20;101000.00;;;;5091624;28;20674;-78
2022/09/03 03:00:17;;;;;;;3.05;1.10;;;;;24.10;101001.00;;;;5091385;28;20198;-78
2022/09/03 03:02:45;;;;;;;1.02;0.70;;;;;24.10;101005.00;;;;5091120;28;20194;-78
2022/09/03 03:05:24;;;;;;;4.32;1.00;;;;;24.00;100998.00;;;;5092061;28;20205;-79
2022/09/03 03:07:51;;;;;;;1.38;1.20;;;;;24.10;101000.00;;;;5091502;28;20501;-78
2022/09/03 03:10:19;;;;;;;3.17;1.15;;;;;24.10;100997.00;;;;5090700;28;20229;-78
2022/09/03 03:12:46;;;;;;;1.48;1.00;;;;;24.00;100993.00;;;;5091821;28;20213;-78
2022/09/03 03:15:14;;;;;;;7.25;0.98;;;;;24.00;100994.00;;;;5090924;28;20422;-78
2022/09/03 03:17:41;;;;;;;1.95;1.13;;;;;24.00;100995.00;;;;5091227;28;20224;-78
2022/09/03 03:20:10;;;;;;;3.63;1.10;;;;;24.00;100991.00;;;;5091263;28;20197;-78
2022/09/03 03:22:38;;;;;;;4.05;1.00;;;;;24.00;100984.00;;;;5090364;28;20202;-79
2022/09/03 03:25:06;;;;;;;1.05;0.88;;;;;24.00;100988.00;;;;5090956;28;20218;-78
2022/09/03 03:27:34;;;;;;;1.75;1.08;;;;;24.00;100988.00;;;;5090495;28;20210;-80
2022/09/03 03:30:02;;;;;;;1.20;0.90;;;;;24.00;100986.00;;;;5090903;28;20234;-78
2022/09/03 03:32:29;;;;;;;3.53;1.10;;;;;24.00;100983.00;;;;5090334;28;20209;-78
2022/09/03 03:34:56;;;;;;;1.30;1.08;;;;;24.00;100992.00;;;;5090206;28;20672;-79
2022/09/03 03:37:23;;;;;;;2.17;1.08;;;;;24.00;100991.00;;;;5090833;28;20198;-79
2022/09/03 03:39:52;;;;;;;1.98;1.00;;;;;23.90;100995.00;;;;5090455;28;20528;-79
2022/09/03 03:42:19;;;;;;;1.33;0.82;;;;;23.90;101000.00;;;;5090819;28;20645;-79
2022/09/03 03:44:46;;;;;;;1.10;1.02;;;;;23.90;100996.00;;;;5090533;28;20201;-78
2022/09/03 03:47:15;;;;;;;1.95;1.00;;;;;23.90;100990.00;;;;5090323;28;20205;-78
2022/09/03 03:49:43;;;;;;;0.95;0.70;;;;;23.90;100993.00;;;;5089837;28;20225;-78
2022/09/03 03:52:10;;;;;;;2.53;1.13;;;;;23.90;100990.00;;;;5090653;28;20202;-78
2022/09/03 03:54:37;;;;;;;1.52;0.95;;;;;23.90;100985.00;;;;5090268;28;20206;-78
2022/09/03 03:57:06;;;;;;;1.10;0.85;;;;;23.90;100998.00;;;;5090728;28;20198;-78
2022/09/03 03:59:33;;;;;;;3.28;1.33;;;;;23.90;100997.00;;;;5090177;28;20202;-78
2022/09/03 04:02:00;;;;;;;2.42;0.88;;;;;23.90;100995.00;;;;5090866;28;20199;-78
2022/09/03 04:04:28;;;;;;;1.45;1.20;;;;;23.90;100996.00;;;;5089828;28;20209;-78
2022/09/03 04:06:55;;;;;;;1.15;1.02;;;;;23.90;100994.00;;;;5090127;28;20209;-78
2022/09/03 04:09:22;;;;;;;1.70;1.02;;;;;23.80;100991.00;;;;5090495;28;20305;-78
2022/09/03 04:11:50;;;;;;;0.82;0.80;;;;;23.80;100995.00;;;;5089644;28;20198;-79
2022/09/03 04:14:18;;;;;;;1.70;1.02;;;;;23.80;100991.00;;;;5090315;28;20218;-78
2022/09/03 04:16:46;;;;;;;3.80;1.00;;;;;23.80;100988.00;;;;5089255;28;20213;-79
2022/09/03 04:19:13;;;;;;;1.23;1.00;;;;;23.80;100993.00;;;;5090190;28;20213;-78
2022/09/03 04:21:41;;;;;;;2.65;1.30;;;;;23.80;100986.00;;;;5089067;28;20202;-79
2022/09/03 04:24:08;;;;;;;1.33;1.00;;;;;23.80;100986.00;;;;5089796;28;20225;-78
2022/09/03 04:26:36;;;;;;;0.80;0.70;;;;;23.80;100986.00;;;;5089793;28;20210;-79
2022/09/03 04:29:06;;;;;;;2.53;0.75;;;;;23.70;100987.00;;;;5089929;28;20696;-78
2022/09/03 04:31:35;;;;;;;1.92;0.98;;;;;23.70;100984.00;;;;5088292;28;20214;-79
2022/09/03 04:34:05;;;;;;;1.35;0.95;;;;;23.70;100990.00;;;;5089931;28;20202;-78
2022/09/03 04:36:33;;;;;;;2.47;1.20;;;;;23.70;100989.00;;;;5089496;28;20857;-78
2022/09/03 04:39:01;;;;;;;1.40;1.15;;;;;23.70;100977.00;;;;5089547;28;20206;-78
2022/09/03 04:41:31;;;;;;;1.48;0.88;;;;;23.70;100983.00;;;;5089652;28;20210;-79
2022/09/03 04:43:59;;;;;;;0.80;0.70;;;;;23.70;100986.00;;;;5089779;28;20202;-78
2022/09/03 04:46:31;;;;;;;1.60;0.90;;;;;23.60;100990.00;;;;5089312;28;20206;-78
2022/09/03 04:49:00;;;;;;;1.52;0.80;;;;;23.60;100994.00;;;;5089661;28;20234;-78
2022/09/03 04:51:28;;;;;;;1.65;1.00;;;;;23.60;100991.00;;;;5089187;28;20222;-78
2022/09/03 04:53:57;;;;;;;3.22;0.90;;;;;23.60;100992.00;;;;5089034;28;20313;-78
2022/09/03 04:56:27;;;;;;;1.02;0.93;;;;;23.60;100988.00;;;;5089417;28;20228;-78
2022/09/03 04:58:56;;;;;;;1.27;1.00;;;;;23.60;100979.00;;;;5088954;28;20202;-78
2022/09/03 05:01:25;;;;;;;1.95;1.23;;;;;23.60;100987.00;;;;5088727;28;20202;-78
2022/09/03 05:03:53;;;;;;;1.15;0.90;;;;;23.60;100986.00;;;;5088790;28;20206;-78
2022/09/03 05:06:21;;;;;;;1.48;0.90;;;;;23.50;100990.00;;;;5089210;28;20194;-78
2022/09/03 05:08:49;;;;;;;1.20;0.77;;;;;23.50;100990.00;;;;5088981;28;20556;-78
2022/09/03 05:11:17;;;;;;;1.50;0.88;;;;;23.50;100992.00;;;;5088968;28;20226;-78
2022/09/03 05:13:48;;;;;;;1.63;1.00;;;;;23.50;100993.00;;;;5088625;28;20193;-78
2022/09/03 05:16:16;;;;;;;1.38;0.85;;;;;23.50;100985.00;;;;5088889;28;20608;-79
2022/09/03 05:18:43;;;;;;;2.33;1.08;;;;;23.50;100987.00;;;;5088840;28;20578;-78
2022/09/03 05:21:13;;;;;;;1.30;0.80;;;;;23.50;100984.00;;;;5088081;28;20205;-78
2022/09/03 05:23:44;;;;;;;2.78;0.80;;;;;23.40;100983.00;;;;5088680;28;20202;-79
2022/09/03 05:26:13;;;;;;;0.70;0.70;;;;;23.50;100982.00;;;;5089437;28;20668;-78
2022/09/03 05:28:42;;;;;;;2.28;0.90;;;;;23.40;100985.00;;;;5088743;28;20195;-78
2022/09/03 05:31:11;;;;;;;0.70;0.70;;;;;23.40;100990.00;;;;5088605;28;20233;-79
2022/09/03 05:33:39;;;;;;;0.60;0.60;;;;;23.40;100985.00;;;;5088491;28;20209;-79
2022/09/03 05:36:08;;;;;;;0.90;0.65;;;;;23.40;100981.00;;;;5089235;28;20213;-79
2022/09/03 05:38:35;;;;;;;1.15;0.82;;;;;23.50;100983.00;;;;5088550;28;20667;-78
2022/09/03 05:41:06;;;;;;;1.13;0.90;;;;;23.50;100984.00;;;;5089400;28;20195;-79
2022/09/03 05:43:34;;;;;;;3.47;1.10;;;;;23.50;100989.00;;;;5087912;28;20245;-79
2022/09/03 05:46:03;;;;;;;1.10;0.70;;;;;23.50;100992.00;;;;5088450;28;20197;-79
2022/09/03 05:48:32;;;;;;;2.08;0.95;;;;;23.50;100986.00;;;;5088075;28;20214;-79
2022/09/03 05:51:00;;;;;;;1.13;0.80;;;;;23.50;100986.00;;;;5087503;28;20225;-79
2022/09/03 05:53:28;;;;;;;1.08;0.57;;;;;23.50;100988.00;;;;5088442;28;20561;-79
2022/09/03 05:55:59;;;;;;;1.48;0.80;;;;;23.50;100992.00;;;;5088339;28;20197;-79
2022/09/03 05:58:30;;;;;;;1.02;0.82;;;;;23.50;100990.00;;;;5088340;28;20197;-78
2022/09/03 06:00:58;;;;;;;1.33;0.93;;;;;23.60;100996.00;;;;5088772;28;20191;-79
2022/09/03 06:03:26;;;;;;;1.77;0.90;;;;;23.60;100987.00;;;;5088738;28;20245;-79
2022/09/03 06:05:54;;;;;;;2.95;1.20;;;;;23.60;100990.00;;;;5087874;28;20205;-79
2022/09/03 06:08:22;;;;;;;1.10;0.90;;;;;23.70;100992.00;;;;5088578;28;20583;-79
2022/09/03 06:10:50;;;;;;;4.20;0.95;;;;;23.70;100992.00;;;;5088380;28;20226;-79
2022/09/03 06:13:17;;;;;;;1.23;0.90;;;;;23.70;100987.00;;;;5088714;28;20206;-79
2022/09/03 06:15:45;;;;;;;1.00;0.77;;;;;23.70;100996.00;;;;5087609;28;20198;-79
2022/09/03 06:18:13;;;;;;;2.28;1.08;;;;;23.70;100995.00;;;;5088113;28;20201;-79
2022/09/03 06:20:40;;;;;;;1.13;0.80;;;;;23.70;101002.00;;;;5088079;28;20213;-79
2022/09/03 06:23:07;;;;;;;1.20;0.70;;;;;23.80;100997.00;;;;5088815;28;20209;-80
2022/09/03 06:25:34;;;;;;;0.60;0.60;;;;;23.80;100998.00;;;;5088063;28;20218;-79
2022/09/03 06:28:02;;;;;;;1.00;0.90;;;;;23.80;100994.00;;;;5088417;28;20205;-79
2022/09/03 06:30:29;;;;;;;0.90;0.70;;;;;23.90;100995.00;;;;5087525;28;20719;-79
2022/09/03 06:32:58;;;;;;;1.58;0.75;;;;;23.90;100992.00;;;;5088041;28;20202;-78
2022/09/03 06:35:25;;;;;;;2.47;0.90;;;;;24.00;100990.00;;;;5088617;28;20206;-79
2022/09/03 06:37:52;;;;;;;4.30;1.00;;;;;24.10;100995.00;;;;5087537;28;20656;-79
2022/09/03 06:40:21;;;;;;;3.58;0.90;;;;;24.10;100992.00;;;;5088395;28;20621;-79
2022/09/03 06:42:58;;;;;;;2.13;0.70;;;;;24.10;100988.00;;;;5087368;28;20569;-81
2022/09/03 06:45:25;;;;;;;1.77;0.85;;;;;24.20;100987.00;;;;5088718;28;20255;-79
2022/09/03 06:47:53;;;;;;;1.55;0.93;;;;;24.30;101002.00;;;;5087761;28;20202;-79
2022/09/03 06:50:22;;;;;;;1.50;0.68;;;;;24.40;101001.00;;;;5088608;28;20233;-80
2022/09/03 06:52:53;;;;;;;2.40;0.80;;;;;24.40;101001.00;;;;5087268;28;20202;-80
2022/09/03 06:55:21;;;;;;;0.90;0.60;;;;;24.50;101003.00;;;;5087756;28;20209;-80
2022/09/03 06:57:50;;;;;;;1.42;0.90;;;;;24.60;101002.00;;;;5088364;28;20990;-79
2022/09/03 07:00:17;;;;;;;2.13;0.98;;;;;24.60;100999.00;;;;5087629;28;20202;-79
2022/09/03 07:02:44;;;;;;;1.55;0.80;;;;;24.70;101002.00;;;;5087977;28;20562;-79
2022/09/03 07:05:12;;;;;;;0.80;0.68;;;;;24.80;100996.00;;;;5088494;28;20202;-79
2022/09/03 07:07:40;;;;;;;1.17;0.70;;;;;24.80;100998.00;;;;5087722;28;20202;-79
2022/09/03 07:10:09;;;;;;;2.13;0.90;;;;;24.90;100998.00;;;;5088323;28;20221;-79
2022/09/03 07:12:37;;;;;;;0.65;0.65;;;;;25.00;100995.00;;;;5088005;28;20233;-80
2022/09/03 07:15:04;;;;;;;1.20;0.75;;;;;25.00;101000.00;;;;5087884;28;20206;-80
2022/09/03 07:17:32;;;;;;;1.33;0.82;;;;;25.10;101001.00;;;;5087178;28;20199;-80
2022/09/03 07:19:59;;;;;;;1.27;0.82;;;;;25.10;100994.00;;;;5087197;28;20197;-79
2022/09/03 07:22:26;;;;;;;0.68;0.60;;;;;25.20;101002.00;;;;5087676;28;20198;-79
2022/09/03 07:24:55;;;;;;;0.68;0.50;;;;;25.20;101000.00;;;;5091149;28;20587;-79
2022/09/03 07:27:23;;;;;;;2.28;1.00;;;;;25.30;101009.00;;;;5090359;28;20703;-79
2022/09/03 07:29:50;;;;;;;1.48;0.85;;;;;25.40;101004.00;;;;5090118;28;20256;-79
2022/09/03 07:32:17;;;;;;;1.30;0.70;;;;;25.50;100999.00;;;;5090745;28;20225;-79
2022/09/03 07:34:44;;;;;;;0.68;0.60;;;;;25.60;101004.00;;;;5089899;28;20210;-79
2022/09/03 07:37:12;;;;;;;0.75;0.60;;;;;25.60;101004.00;;;;5091142;28;20221;-79
2022/09/03 07:39:40;;;;;;;2.67;0.85;;;;;25.70;101005.00;;;;5090328;28;20193;-79
2022/09/03 07:42:09;;;;;;;1.30;0.90;;;;;25.80;101006.00;;;;5090927;28;20608;-79
2022/09/03 07:44:37;;;;;;;2.17;0.65;;;;;25.80;101002.00;;;;5090018;28;20712;-79
2022/09/03 07:47:05;;;;;;;2.78;0.70;;;;;25.90;101001.00;;;;5090692;28;20555;-78
2022/09/03 07:49:32;;;;;;;3.13;0.75;;;;;25.90;101000.00;;;;5090296;28;20206;-79
2022/09/03 07:52:01;;;;;;;1.73;0.73;;;;;26.00;101005.00;;;;5090370;28;20700;-79
2022/09/03 07:54:30;;;;;;;1.80;0.80;;;;;26.10;101007.00;;;;5089986;28;20234;-80
2022/09/03 07:56:58;;;;;;;1.85;1.00;;;;;26.10;101008.00;;;;5090509;28;20202;-78
2022/09/03 07:59:26;;;;;;;0.95;0.70;;;;;26.20;101007.00;;;;5090715;28;20281;-79
2022/09/03 08:01:53;;;;;;;1.08;0.80;;;;;26.20;101012.00;;;;5090064;28;20226;-79
2022/09/03 08:04:21;;;;;;;1.60;1.15;;;;;26.30;101014.00;;;;5090025;28;20213;-80
2022/09/03 08:06:49;;;;;;;4.80;1.05;;;;;26.30;101016.00;;;;5090009;28;20489;-79
2022/09/03 08:09:16;;;;;;;2.95;0.90;;;;;26.40;101018.00;;;;5090024;28;20202;-80
2022/09/03 08:11:43;;;;;;;1.65;0.82;;;;;26.50;101010.00;;;;5090258;28;20650;-79
2022/09/03 08:14:13;;;;;;;1.15;0.60;;;;;26.50;101014.00;;;;5090123;28;20202;-79
2022/09/03 08:16:44;;;;;;;1.58;0.73;;;;;26.60;101010.00;;;;5089865;28;20201;-80
2022/09/03 08:19:13;;;;;;;1.30;0.55;;;;;26.70;101027.00;;;;5089747;28;20202;-80
2022/09/03 08:21:41;;;;;;;1.77;0.70;;;;;26.80;101019.00;;;;5089558;28;20201;-79
2022/09/03 08:24:09;;;;;;;1.48;0.90;;;;;26.80;101024.00;;;;5088331;28;20279;-78
2022/09/03 08:26:39;;;;;;;3.38;0.82;;;;;26.90;101025.00;;;;5090313;28;20209;-79
2022/09/03 08:29:06;;;;;;;1.05;0.93;;;;;26.90;101026.00;;;;5089837;28;20889;-79
2022/09/03 08:31:35;;;;;;;1.45;0.80;;;;;27.00;101029.00;;;;5089464;28;20222;-79
2022/09/03 08:34:06;;;;;;;2.40;0.70;;;;;27.10;101023.00;;;;5090249;28;20232;-79
2022/09/03 08:36:35;;;;;;;1.77;0.75;;;;;27.20;101022.00;;;;5089645;28;21160;-80
2022/09/03 08:39:08;;;;;;;1.13;0.90;;;;;27.30;101023.00;;;;5089509;28;20252;-80
2022/09/03 08:41:58;;;;;;;1.77;0.80;;;;;27.40;101028.00;;;;5090470;28;20199;-80
2022/09/03 08:44:28;;;;;;;1.70;0.75;;;;;27.50;101032.00;;;;5089988;28;20305;-82
2022/09/03 08:47:01;;;;;;;1.30;0.80;;;;;27.60;101024.00;;;;5089601;28;20201;-79
2022/09/03 08:49:36;;;;;;;3.70;1.33;;;;;27.70;101040.00;;;;5089415;28;20195;-79
2022/09/03 08:52:07;;;;;;;0.80;0.70;;;;;27.80;101039.00;;;;5081167;28;20234;-79
2022/09/03 08:54:36;;;;;;;1.35;0.80;;;;;28.00;101033.00;;;;5081353;28;20209;-80
2022/09/03 08:57:05;;;;;;;1.98;0.95;;;;;28.10;101034.00;;;;5089969;28;20202;-80
2022/09/03 08:59:33;;;;;;;3.25;0.90;;;;;28.20;101029.00;;;;5089369;28;20205;-80
2022/09/03 09:02:17;;;;;;;2.78;1.27;;;;;28.20;101037.00;;;;5088738;28;20751;-80
2022/09/03 09:04:58;;;;;;;2.03;0.70;;;;;28.30;101030.00;;;;5088769;28;20198;-80
2022/09/03 09:07:32;;;;;;;0.82;0.60;;;;;28.50;101026.00;;;;5089145;28;20238;-80
2022/09/03 09:10:10;;;;;;;2.92;0.90;;;;;28.60;101021.00;;;;5088817;28;20671;-81
2022/09/03 09:12:46;;;;;;;1.30;0.73;;;;;28.70;101028.00;;;;5082350;28;20218;-80
2022/09/03 09:15:19;;;;;;;1.10;0.68;;;;;28.90;101029.00;;;;5087971;28;20212;-79
2022/09/03 09:18:00;;;;;;;0.93;0.70;;;;;29.00;101033.00;;;;5088221;28;20194;-81
2022/09/03 09:20:40;;;;;;;1.15;1.05;;;;;29.10;101030.00;;;;5089277;28;20194;-80
2022/09/03 09:23:12;;;;;;;1.10;0.82;;;;;29.20;101028.00;;;;5088949;28;20660;-80
2022/09/03 09:25:47;;;;;;;3.15;1.13;;;;;29.30;101025.00;;;;5088311;28;20589;-80
2022/09/03 09:28:19;;;;;;;2.72;0.75;;;;;29.50;101024.00;;;;5088408;28;20216;-80
2022/09/03 09:30:48;;;;;;;3.28;0.70;;;;;29.60;101023.00;;;;5088140;28;20271;-80
2022/09/03 09:33:15;;;;;;;1.80;1.00;;;;;29.80;101024.00;;;;5088804;28;20203;-80
2022/09/03 09:35:45;;;;;;;0.82;0.57;;;;;29.80;101022.00;;;;5087711;28;20212;-80
2022/09/03 09:38:13;;;;;;;4.05;0.90;;;;;30.00;101028.00;;;;5088769;28;20198;-79
2022/09/03 09:40:43;;;;;;;0.98;0.80;;;;;30.10;101027.00;;;;5088251;28;20202;-80
2022/09/03 09:43:15;;;;;;;0.95;0.60;;;;;30.20;101016.00;;;;5088761;28;20232;-79
2022/09/03 09:45:44;;;;;;;1.30;0.73;;;;;30.30;101027.00;;;;5087576;28;20234;-81
2022/09/03 09:48:22;;;;;;;0.70;0.70;;;;;30.40;101032.00;;;;5088068;28;20213;-79
2022/09/03 09:51:03;;;;;;;0.98;0.73;;;;;30.50;101032.00;;;;5088218;28;20856;-80
2022/09/03 09:53:30;;;;;;;2.25;0.70;;;;;30.70;101026.00;;;;5088169;28;20198;-81
2022/09/03 09:55:58;;;;;;;1.00;0.60;;;;;30.80;101030.00;;;;5088244;28;20199;-80
2022/09/03 09:58:31;;;;;;;1.30;0.65;;;;;30.90;101033.00;;;;5088143;28;20553;-80
2022/09/03 10:01:11;;;;;;;0.90;0.77;;;;;31.00;101025.00;;;;5087977;28;20294;-79
2022/09/03 10:03:48;;;;;;;0.75;0.68;;;;;31.10;101034.00;;;;5067597;28;20205;-80
2022/09/03 10:09:10;;;;;;;1.33;1.23;;;;;31.30;101032.00;;;;5067463;28;20210;-80
2022/09/03 10:11:41;;;;;;;2.15;1.13;;;;;31.50;101037.00;;;;5080594;28;20222;-80
2022/09/03 10:14:15;;;;;;;1.20;0.63;;;;;31.60;101030.00;;;;5088292;28;20205;-80
2022/09/03 10:16:47;;;;;;;2.63;0.60;;;;;31.70;101031.00;;;;5087591;28;20204;-80
2022/09/03 10:19:18;;;;;;;2.25;0.70;;;;;31.80;101024.00;;;;5087273;28;20206;-79
2022/09/03 10:21:54;;;;;;;1.13;0.68;;;;;31.90;101020.00;;;;5087257;28;20256;-79
2022/09/03 10:24:47;;;;;;;2.28;0.80;;;;;31.90;101026.00;;;;5088385;28;20225;-80
2022/09/03 10:27:18;;;;;;;0.90;0.68;;;;;32.10;101026.00;;;;5087933;28;20570;-79
2022/09/03 10:29:45;;;;;;;2.17;1.30;;;;;32.20;101024.00;;;;5088023;28;20593;-80
2022/09/03 10:32:25;;;;;;;0.73;0.60;;;;;32.20;101014.00;;;;5087735;28;20686;-79
2022/09/03 10:35:03;;;;;;;1.60;0.77;;;;;32.40;101015.00;;;;5088202;28;20205;-80
2022/09/03 10:37:39;;;;;;;1.20;0.85;;;;;32.40;101014.00;;;;5088356;28;20206;-80
2022/09/03 10:40:29;;;;;;;1.27;0.77;;;;;32.50;101016.00;;;;5088691;28;20205;-79
2022/09/03 10:43:17;;;;;;;0.75;0.65;;;;;32.60;101016.00;;;;5087918;28;20270;-79
2022/09/03 10:45:58;;;;;;;1.10;0.70;;;;;32.70;101016.00;;;;5087343;28;20197;-79
2022/09/03 10:48:50;;;;;;;1.45;0.80;;;;;32.80;101020.00;;;;5087639;28;20205;-79
2022/09/03 10:51:23;;;;;;;1.10;0.70;;;;;32.90;101026.00;;;;5088165;28;20632;-79
2022/09/03 10:54:18;;;;;;;5.28;1.25;;;;;32.90;101022.00;;;;5087215;28;20668;-80
2022/09/03 10:56:57;;;;;;;3.33;0.82;;;;;32.90;101018.00;;;;5087453;28;20293;-80
2022/09/03 10:59:45;;;;;;;1.40;0.82;;;;;33.00;101019.00;;;;5090340;28;20999;-80
2022/09/03 11:02:29;;;;;;;2.03;0.80;;;;;33.00;101022.00;;;;5091920;28;20228;-80
2022/09/03 11:05:02;;;;;;;1.00;0.63;;;;;33.00;101024.00;;;;5091326;28;20202;-79
2022/09/03 11:07:37;;;;;;;2.28;0.80;;;;;33.00;101016.00;;;;5091081;28;20221;-80
2022/09/03 11:10:14;;;;;;;1.27;0.80;;;;;33.00;101022.00;;;;5091111;28;20201;-79
2022/09/03 11:12:48;;;;;;;0.70;0.68;;;;;33.10;101021.00;;;;5090854;28;20230;-79
2022/09/03 11:15:23;;;;;;;1.23;0.75;;;;;33.10;101023.00;;;;5091393;28;20656;-79
2022/09/03 11:17:56;;;;;;;0.50;0.50;;;;;33.10;101018.00;;;;5091065;28;20197;-80
2022/09/03 11:20:25;;;;;;;1.08;0.90;;;;;33.20;101019.00;;;;5090789;28;20186;-79
2022/09/03 11:22:56;;;;;;;1.27;0.70;;;;;33.20;101017.00;;;;5091173;28;20186;-80
2022/09/03 11:25:31;;;;;;;0.88;0.70;;;;;33.10;101017.00;;;;5091204;28;20212;-80
2022/09/03 11:28:12;;;;;;;1.50;0.88;;;;;33.10;101013.00;;;;5089044;28;20197;-80
2022/09/03 11:30:52;;;;;;;0.60;0.60;;;;;33.10;101015.00;;;;5089798;28;20225;-80
2022/09/03 11:33:23;;;;;;;3.72;1.00;;;;;33.20;101009.00;;;;5090215;28;20668;-79
2022/09/03 11:35:59;;;;;;;1.30;0.68;;;;;33.10;101014.00;;;;5090814;28;20201;-80
2022/09/03 11:38:30;;;;;;;1.30;0.77;;;;;33.20;101007.00;;;;5091310;28;20229;-80
2022/09/03 11:41:10;;;;;;;1.23;0.55;;;;;33.10;101009.00;;;;5090504;28;20198;-81
2022/09/03 11:43:38;;;;;;;1.00;0.68;;;;;33.20;101004.00;;;;5089906;28;20750;-81
2022/09/03 11:46:11;;;;;;;0.98;0.70;;;;;33.20;101000.00;;;;5091061;28;20645;-79
2022/09/03 11:48:42;;;;;;;0.68;0.68;;;;;33.20;101000.00;;;;5090203;28;20202;-79
2022/09/03 11:51:30;;;;;;;1.13;1.00;;;;;33.10;101004.00;;;;5090566;28;20198;-80
2022/09/03 11:54:00;;;;;;;0.80;0.80;;;;;33.20;101004.00;;;;5090744;28;20659;-80
2022/09/03 11:56:30;;;;;;;2.58;1.20;;;;;33.20;100997.00;;;;5091002;28;20200;-79
2022/09/03 11:59:15;;;;;;;0.95;0.77;;;;;33.20;101003.00;;;;5090339;28;20206;-80
2022/09/03 12:01:46;;;;;;;1.33;0.82;;;;;33.20;101004.00;;;;5089323;28;20214;-79
2022/09/03 12:04:16;;;;;;;2.55;0.70;;;;;33.20;101007.00;;;;5090736;28;20217;-80
2022/09/03 12:07:05;;;;;;;1.83;1.08;;;;;33.20;101003.00;;;;5090382;28;20247;-80
2022/09/03 12:09:50;;;;;;;1.38;1.00;;;;;33.20;101007.00;;;;5072593;28;20590;-79
2022/09/03 12:12:32;;;;;;;1.70;0.90;;;;;33.20;101010.00;;;;5090375;28;20268;-79
2022/09/03 12:15:08;;;;;;;1.10;0.90;;;;;33.20;101013.00;;;;5089841;28;20204;-79
2022/09/03 12:17:45;;;;;;;1.90;0.88;;;;;33.20;101008.00;;;;5089559;28;20208;-79
2022/09/03 12:20:14;;;;;;;0.95;0.80;;;;;33.30;101002.00;;;;5090344;28;20683;-79
2022/09/03 12:22:42;;;;;;;1.10;0.95;;;;;33.30;101006.00;;;;5089046;28;20198;-79
2022/09/03 12:25:11;;;;;;;0.98;0.70;;;;;33.40;101010.00;;;;5090133;28;20209;-79
2022/09/03 12:27:43;;;;;;;2.40;1.25;;;;;33.40;101011.00;;;;5089388;28;20206;-80
2022/09/03 12:30:18;;;;;;;0.80;0.77;;;;;33.40;101009.00;;;;5089807;28;20233;-79
2022/09/03 12:32:48;;;;;;;1.48;1.10;;;;;33.40;101012.00;;;;5089135;28;20228;-79
2022/09/03 12:35:17;;;;;;;2.83;1.15;;;;;33.50;101015.00;;;;5090094;28;20229;-79